sensor_id;sensor_type;location;lat;lon;timestamp;pressure;altitude;pressure_sealevel;temperature;humidity
2841;BME280;53423;49.224;12.074;2023-03-02T00:01:23;98037.22;;;3.25;60.40
2841;BME280;53423;49.224;12.074;2023-03-02T00:03:53;98035.84;;;3.32;59.33
2841;BME280;53423;49.224;12.074;2023-03-02T00:06:24;98025.50;;;3.32;59.05
2841;BME280;53423;49.224;12.074;2023-03-02T00:08:52;98021.25;;;3.07;60.41
2841;BME280;53423;49.224;12.074;2023-03-02T00:11:22;98029.13;;;3.06;60.21
2841;BME280;53423;49.224;12.074;2023-03-02T00:13:50;98025.31;;;2.99;61.15
2841;BME280;53423;49.224;12.074;2023-03-02T00:16:17;98016.88;;;3.08;60.40
2841;BME280;53423;49.224;12.074;2023-03-02T00:18:45;98016.63;;;3.00;60.92
2841;BME280;53423;49.224;12.074;2023-03-02T00:21:14;98014.84;;;3.00;60.43
2841;BME280;53423;49.224;12.074;2023-03-02T00:23:41;98004.81;;;2.96;61.26
2841;BME280;53423;49.224;12.074;2023-03-02T00:26:10;98002.03;;;2.99;60.85
2841;BME280;53423;49.224;12.074;2023-03-02T00:28:39;98004.53;;;2.88;60.93
2841;BME280;53423;49.224;12.074;2023-03-02T00:31:07;98006.97;;;2.78;62.00
2841;BME280;53423;49.224;12.074;2023-03-02T00:33:35;98004.47;;;2.77;62.22
2841;BME280;53423;49.224;12.074;2023-03-02T00:36:04;97994.53;;;2.83;62.22
2841;BME280;53423;49.224;12.074;2023-03-02T00:38:32;97997.84;;;2.85;61.14
2841;BME280;53423;49.224;12.074;2023-03-02T00:41:00;97997.16;;;2.94;62.00
2841;BME280;53423;49.224;12.074;2023-03-02T00:43:28;98004.25;;;2.80;61.42
2841;BME280;53423;49.224;12.074;2023-03-02T00:45:57;97998.09;;;2.93;62.03
2841;BME280;53423;49.224;12.074;2023-03-02T00:48:25;97996.63;;;3.02;61.19
2841;BME280;53423;49.224;12.074;2023-03-02T00:50:53;97993.94;;;3.03;61.15
2841;BME280;53423;49.224;12.074;2023-03-02T00:53:21;97989.69;;;3.02;61.02
2841;BME280;53423;49.224;12.074;2023-03-02T00:55:52;97994.28;;;2.86;61.73
2841;BME280;53423;49.224;12.074;2023-03-02T00:58:21;97989.63;;;2.91;61.46
2841;BME280;53423;49.224;12.074;2023-03-02T01:00:49;97989.50;;;2.93;60.86
2841;BME280;53423;49.224;12.074;2023-03-02T01:03:18;97986.69;;;2.96;61.21
2841;BME280;53423;49.224;12.074;2023-03-02T01:05:46;97973.66;;;2.97;61.43
2841;BME280;53423;49.224;12.074;2023-03-02T01:08:14;97967.28;;;2.90;62.20
2841;BME280;53423;49.224;12.074;2023-03-02T01:10:42;97966.78;;;2.85;62.13
2841;BME280;53423;49.224;12.074;2023-03-02T01:13:10;97962.63;;;2.83;62.37
2841;BME280;53423;49.224;12.074;2023-03-02T01:15:38;97957.28;;;2.97;61.84
2841;BME280;53423;49.224;12.074;2023-03-02T01:18:06;97965.16;;;2.72;61.70
2841;BME280;53423;49.224;12.074;2023-03-02T01:20:35;97954.06;;;2.82;62.49
2841;BME280;53423;49.224;12.074;2023-03-02T01:23:03;97944.19;;;2.87;61.44
2841;BME280;53423;49.224;12.074;2023-03-02T01:25:31;97943.25;;;2.88;62.53
2841;BME280;53423;49.224;12.074;2023-03-02T01:27:59;97938.06;;;2.88;61.63
2841;BME280;53423;49.224;12.074;2023-03-02T01:30:27;97933.25;;;2.84;62.32
2841;BME280;53423;49.224;12.074;2023-03-02T01:32:55;97935.63;;;2.98;61.00
2841;BME280;53423;49.224;12.074;2023-03-02T01:35:23;97932.56;;;2.93;61.57
2841;BME280;53423;49.224;12.074;2023-03-02T01:37:52;97934.16;;;2.83;61.99
2841;BME280;53423;49.224;12.074;2023-03-02T01:40:20;97931.31;;;2.75;62.36
2841;BME280;53423;49.224;12.074;2023-03-02T01:42:50;97927.13;;;2.85;61.95
2841;BME280;53423;49.224;12.074;2023-03-02T01:45:42;97925.50;;;2.95;61.73
2841;BME280;53423;49.224;12.074;2023-03-02T01:48:12;97924.38;;;2.75;61.71
2841;BME280;53423;49.224;12.074;2023-03-02T01:50:42;97925.50;;;2.95;61.37
2841;BME280;53423;49.224;12.074;2023-03-02T01:53:12;97914.72;;;3.01;61.27
2841;BME280;53423;49.224;12.074;2023-03-02T01:55:43;97912.69;;;2.93;60.97
2841;BME280;53423;49.224;12.074;2023-03-02T01:58:27;97911.47;;;2.86;61.38
2841;BME280;53423;49.224;12.074;2023-03-02T02:00:59;97916.44;;;2.66;61.91
2841;BME280;53423;49.224;12.074;2023-03-02T02:03:29;97917.97;;;2.68;61.60
2841;BME280;53423;49.224;12.074;2023-03-02T02:06:03;97912.81;;;2.68;61.92
2841;BME280;53423;49.224;12.074;2023-03-02T02:08:34;97915.72;;;2.87;61.87
2841;BME280;53423;49.224;12.074;2023-03-02T02:11:03;97914.22;;;2.96;60.71
2841;BME280;53423;49.224;12.074;2023-03-02T02:13:32;97917.88;;;2.93;61.35
2841;BME280;53423;49.224;12.074;2023-03-02T02:15:59;97918.41;;;2.86;61.60
2841;BME280;53423;49.224;12.074;2023-03-02T02:18:27;97914.13;;;2.97;60.96
2841;BME280;53423;49.224;12.074;2023-03-02T02:20:55;97913.56;;;2.81;62.15
2841;BME280;53423;49.224;12.074;2023-03-02T02:23:26;97905.16;;;2.67;61.56
2841;BME280;53423;49.224;12.074;2023-03-02T02:26:11;97913.69;;;2.80;61.91
2841;BME280;53423;49.224;12.074;2023-03-02T02:28:49;97901.41;;;2.71;62.58
2841;BME280;53423;49.224;12.074;2023-03-02T02:31:27;97910.09;;;2.70;61.95
2841;BME280;53423;49.224;12.074;2023-03-02T02:34:01;97910.44;;;2.65;61.81
2841;BME280;53423;49.224;12.074;2023-03-02T02:36:33;97917.00;;;2.82;61.53
2841;BME280;53423;49.224;12.074;2023-03-02T02:39:06;97910.38;;;2.78;61.30
2841;BME280;53423;49.224;12.074;2023-03-02T02:41:38;97901.00;;;2.88;61.30
2841;BME280;53423;49.224;12.074;2023-03-02T02:44:08;97900.91;;;2.89;60.48
2841;BME280;53423;49.224;12.074;2023-03-02T02:46:39;97894.44;;;2.60;62.00
2841;BME280;53423;49.224;12.074;2023-03-02T02:49:26;97907.13;;;2.63;62.23
2841;BME280;53423;49.224;12.074;2023-03-02T02:51:55;97903.44;;;2.54;61.80
2841;BME280;53423;49.224;12.074;2023-03-02T02:54:24;97905.09;;;2.55;62.29
2841;BME280;53423;49.224;12.074;2023-03-02T02:56:55;97904.59;;;2.50;61.93
2841;BME280;53423;49.224;12.074;2023-03-02T02:59:26;97903.22;;;2.58;62.23
2841;BME280;53423;49.224;12.074;2023-03-02T03:01:55;97894.81;;;2.67;62.06
2841;BME280;53423;49.224;12.074;2023-03-02T03:04:26;97895.91;;;2.75;61.29
2841;BME280;53423;49.224;12.074;2023-03-02T03:06:57;97895.31;;;2.72;61.34
2841;BME280;53423;49.224;12.074;2023-03-02T03:09:26;97900.38;;;2.73;60.94
2841;BME280;53423;49.224;12.074;2023-03-02T03:11:56;97896.72;;;2.52;61.63
2841;BME280;53423;49.224;12.074;2023-03-02T03:14:28;97897.25;;;2.57;62.10
2841;BME280;53423;49.224;12.074;2023-03-02T03:16:57;97903.34;;;2.56;61.90
2841;BME280;53423;49.224;12.074;2023-03-02T03:19:27;97904.06;;;2.58;62.05
2841;BME280;53423;49.224;12.074;2023-03-02T03:21:57;97902.84;;;2.51;61.65
2841;BME280;53423;49.224;12.074;2023-03-02T03:24:28;97892.44;;;2.64;61.96
2841;BME280;53423;49.224;12.074;2023-03-02T03:26:58;97898.44;;;2.64;61.60
2841;BME280;53423;49.224;12.074;2023-03-02T03:29:28;97892.22;;;2.67;61.45
2841;BME280;53423;49.224;12.074;2023-03-02T03:31:56;97894.97;;;2.76;60.65
2841;BME280;53423;49.224;12.074;2023-03-02T03:34:26;97897.28;;;2.68;60.64
2841;BME280;53423;49.224;12.074;2023-03-02T03:36:54;97897.50;;;2.65;61.14
2841;BME280;53423;49.224;12.074;2023-03-02T03:39:27;97894.47;;;2.47;61.38
2841;BME280;53423;49.224;12.074;2023-03-02T03:41:58;97895.41;;;2.46;61.81
2841;BME280;53423;49.224;12.074;2023-03-02T03:44:26;97905.81;;;2.58;61.39
2841;BME280;53423;49.224;12.074;2023-03-02T03:46:54;97891.72;;;2.38;62.43
2841;BME280;53423;49.224;12.074;2023-03-02T03:49:22;97895.22;;;2.37;62.57
2841;BME280;53423;49.224;12.074;2023-03-02T03:51:50;97901.63;;;2.44;61.56
2841;BME280;53423;49.224;12.074;2023-03-02T03:54:19;97900.09;;;2.41;61.73
2841;BME280;53423;49.224;12.074;2023-03-02T03:56:49;97891.06;;;2.23;62.55
2841;BME280;53423;49.224;12.074;2023-03-02T03:59:20;97905.34;;;2.16;62.10
2841;BME280;53423;49.224;12.074;2023-03-02T04:01:51;97899.06;;;1.95;63.17
2841;BME280;53423;49.224;12.074;2023-03-02T04:04:21;97894.28;;;2.14;63.16
2841;BME280;53423;49.224;12.074;2023-03-02T04:06:50;97898.59;;;2.14;62.61
2841;BME280;53423;49.224;12.074;2023-03-02T04:09:19;97896.91;;;2.25;62.09
2841;BME280;53423;49.224;12.074;2023-03-02T04:11:49;97895.38;;;2.23;61.61
2841;BME280;53423;49.224;12.074;2023-03-02T04:14:19;97900.31;;;2.38;61.60
2841;BME280;53423;49.224;12.074;2023-03-02T04:16:47;97903.69;;;2.39;61.40
2841;BME280;53423;49.224;12.074;2023-03-02T04:19:15;97902.59;;;2.30;61.46
2841;BME280;53423;49.224;12.074;2023-03-02T04:21:46;97901.72;;;2.42;61.37
2841;BME280;53423;49.224;12.074;2023-03-02T04:24:16;97901.22;;;2.37;61.27
2841;BME280;53423;49.224;12.074;2023-03-02T04:26:45;97894.03;;;2.17;61.72
2841;BME280;53423;49.224;12.074;2023-03-02T04:29:13;97889.88;;;2.27;62.69
2841;BME280;53423;49.224;12.074;2023-03-02T04:31:42;97894.78;;;2.19;61.97
2841;BME280;53423;49.224;12.074;2023-03-02T04:34:10;97891.53;;;1.92;62.90
2841;BME280;53423;49.224;12.074;2023-03-02T04:36:39;97887.03;;;2.07;62.36
2841;BME280;53423;49.224;12.074;2023-03-02T04:39:07;97893.25;;;2.04;62.34
2841;BME280;53423;49.224;12.074;2023-03-02T04:41:35;97893.88;;;1.95;63.25
2841;BME280;53423;49.224;12.074;2023-03-02T04:44:03;97891.00;;;2.00;62.75
2841;BME280;53423;49.224;12.074;2023-03-02T04:46:31;97896.88;;;2.02;62.71
2841;BME280;53423;49.224;12.074;2023-03-02T04:49:02;97894.41;;;2.00;62.73
2841;BME280;53423;49.224;12.074;2023-03-02T04:51:33;97898.94;;;2.09;62.80
2841;BME280;53423;49.224;12.074;2023-03-02T04:54:04;97893.59;;;1.87;63.83
2841;BME280;53423;49.224;12.074;2023-03-02T04:56:32;97890.22;;;2.10;62.53
2841;BME280;53423;49.224;12.074;2023-03-02T04:59:01;97898.84;;;1.98;63.16
2841;BME280;53423;49.224;12.074;2023-03-02T05:01:29;97894.81;;;1.94;63.97
2841;BME280;53423;49.224;12.074;2023-03-02T05:03:57;97898.38;;;2.17;62.46
2841;BME280;53423;49.224;12.074;2023-03-02T05:06:29;97888.03;;;2.17;62.35
2841;BME280;53423;49.224;12.074;2023-03-02T05:08:58;97887.03;;;2.07;62.85
2841;BME280;53423;49.224;12.074;2023-03-02T05:11:26;97888.16;;;2.15;62.77
2841;BME280;53423;49.224;12.074;2023-03-02T05:13:56;97879.91;;;2.10;62.81
2841;BME280;53423;49.224;12.074;2023-03-02T05:16:25;97873.47;;;2.16;63.31
2841;BME280;53423;49.224;12.074;2023-03-02T05:18:55;97877.94;;;2.14;63.23
2841;BME280;53423;49.224;12.074;2023-03-02T05:21:23;97881.28;;;1.91;63.88
2841;BME280;53423;49.224;12.074;2023-03-02T05:23:52;97876.84;;;1.93;63.76
2841;BME280;53423;49.224;12.074;2023-03-02T05:26:21;97883.94;;;2.02;63.69
2841;BME280;53423;49.224;12.074;2023-03-02T05:28:49;97879.09;;;1.97;63.46
2841;BME280;53423;49.224;12.074;2023-03-02T05:31:21;97879.88;;;1.74;65.18
2841;BME280;53423;49.224;12.074;2023-03-02T05:33:49;97883.03;;;1.90;64.13
2841;BME280;53423;49.224;12.074;2023-03-02T05:36:18;97882.53;;;1.85;64.43
2841;BME280;53423;49.224;12.074;2023-03-02T05:38:48;97890.38;;;1.96;64.01
2841;BME280;53423;49.224;12.074;2023-03-02T05:41:18;97884.31;;;1.85;64.05
2841;BME280;53423;49.224;12.074;2023-03-02T05:43:46;97887.91;;;1.95;63.79
2841;BME280;53423;49.224;12.074;2023-03-02T05:46:14;97889.03;;;1.91;64.70
2841;BME280;53423;49.224;12.074;2023-03-02T05:48:43;97886.84;;;1.97;63.96
2841;BME280;53423;49.224;12.074;2023-03-02T05:51:11;97896.88;;;2.02;63.78
2841;BME280;53423;49.224;12.074;2023-03-02T05:53:39;97891.09;;;1.98;64.17
2841;BME280;53423;49.224;12.074;2023-03-02T05:56:07;97892.13;;;1.83;63.93
2841;BME280;53423;49.224;12.074;2023-03-02T05:58:36;97893.91;;;1.70;64.93
2841;BME280;53423;49.224;12.074;2023-03-02T06:01:07;97897.66;;;1.66;65.30
2841;BME280;53423;49.224;12.074;2023-03-02T06:03:35;97907.06;;;1.42;65.68
2841;BME280;53423;49.224;12.074;2023-03-02T06:06:03;97903.34;;;1.46;65.95
2841;BME280;53423;49.224;12.074;2023-03-02T06:08:31;97908.50;;;1.46;65.58
2841;BME280;53423;49.224;12.074;2023-03-02T06:10:59;97913.16;;;1.54;65.93
2841;BME280;53423;49.224;12.074;2023-03-02T06:13:27;97911.81;;;1.61;65.40
2841;BME280;53423;49.224;12.074;2023-03-02T06:15:56;97911.38;;;1.67;65.05
2841;BME280;53423;49.224;12.074;2023-03-02T06:18:24;97916.56;;;1.79;65.33
2841;BME280;53423;49.224;12.074;2023-03-02T06:20:52;97919.94;;;2.05;63.68
2841;BME280;53423;49.224;12.074;2023-03-02T06:23:20;97920.22;;;2.00;63.65
2841;BME280;53423;49.224;12.074;2023-03-02T06:25:48;97922.78;;;2.25;64.12
2841;BME280;53423;49.224;12.074;2023-03-02T06:28:17;97923.28;;;2.30;63.75
2841;BME280;53423;49.224;12.074;2023-03-02T06:30:46;97932.16;;;2.63;61.85
2841;BME280;53423;49.224;12.074;2023-03-02T06:33:17;97925.09;;;3.01;61.53
2841;BME280;53423;49.224;12.074;2023-03-02T06:35:47;97918.94;;;3.93;58.15
2841;BME280;53423;49.224;12.074;2023-03-02T06:38:16;97916.78;;;4.09;57.44
2841;BME280;53423;49.224;12.074;2023-03-02T06:40:44;97921.13;;;3.64;59.27
2841;BME280;53423;49.224;12.074;2023-03-02T06:43:15;97915.19;;;3.51;59.67
2841;BME280;53423;49.224;12.074;2023-03-02T06:45:42;97919.66;;;3.38;59.57
2841;BME280;53423;49.224;12.074;2023-03-02T06:48:10;97913.59;;;3.83;57.70
2841;BME280;53423;49.224;12.074;2023-03-02T06:50:40;97922.19;;;3.95;58.35
2841;BME280;53423;49.224;12.074;2023-03-02T06:53:07;97914.19;;;4.74;55.05
2841;BME280;53423;49.224;12.074;2023-03-02T06:55:35;97916.56;;;5.50;53.73
2841;BME280;53423;49.224;12.074;2023-03-02T06:58:03;97915.22;;;5.96;52.77
2841;BME280;53423;49.224;12.074;2023-03-02T07:00:31;97915.34;;;6.74;50.45
2841;BME280;53423;49.224;12.074;2023-03-02T07:03:06;97902.47;;;7.01;49.07
2841;BME280;53423;49.224;12.074;2023-03-02T07:05:34;97903.03;;;7.24;47.85
2841;BME280;53423;49.224;12.074;2023-03-02T07:08:04;97907.50;;;7.60;46.89
2841;BME280;53423;49.224;12.074;2023-03-02T07:10:31;97911.66;;;7.90;47.33
2841;BME280;53423;49.224;12.074;2023-03-02T07:13:00;97903.84;;;9.16;43.67
2841;BME280;53423;49.224;12.074;2023-03-02T07:15:27;97899.53;;;9.24;42.90
2841;BME280;53423;49.224;12.074;2023-03-02T07:17:55;97902.88;;;9.77;42.45
2841;BME280;53423;49.224;12.074;2023-03-02T07:20:23;97896.00;;;9.76;41.98
2841;BME280;53423;49.224;12.074;2023-03-02T07:22:51;97898.69;;;10.10;41.02
2841;BME280;53423;49.224;12.074;2023-03-02T07:25:20;97897.75;;;10.69;39.50
2841;BME280;53423;49.224;12.074;2023-03-02T07:27:48;97893.59;;;10.09;39.75
2841;BME280;53423;49.224;12.074;2023-03-02T07:30:16;97904.78;;;10.19;40.01
2841;BME280;53423;49.224;12.074;2023-03-02T07:32:46;97903.84;;;9.33;43.08
2841;BME280;53423;49.224;12.074;2023-03-02T07:35:14;97901.38;;;10.00;41.33
2841;BME280;53423;49.224;12.074;2023-03-02T07:37:43;97908.47;;;9.39;42.37
2841;BME280;53423;49.224;12.074;2023-03-02T07:40:12;97902.59;;;9.63;41.89
2841;BME280;53423;49.224;12.074;2023-03-02T07:42:41;97903.06;;;10.93;38.54
2841;BME280;53423;49.224;12.074;2023-03-02T07:45:13;97897.66;;;10.86;39.70
2841;BME280;53423;49.224;12.074;2023-03-02T07:47:42;97910.41;;;10.73;39.84
2841;BME280;53423;49.224;12.074;2023-03-02T07:50:10;97900.00;;;11.54;37.79
2841;BME280;53423;49.224;12.074;2023-03-02T07:52:38;97894.88;;;11.04;39.15
2841;BME280;53423;49.224;12.074;2023-03-02T07:55:07;97906.63;;;10.26;41.58
2841;BME280;53423;49.224;12.074;2023-03-02T07:57:35;97904.78;;;10.19;40.67
2841;BME280;53423;49.224;12.074;2023-03-02T08:00:07;97897.44;;;9.71;42.42
2841;BME280;53423;49.224;12.074;2023-03-02T08:02:35;97897.44;;;9.71;42.21
2841;BME280;53423;49.224;12.074;2023-03-02T08:05:03;97901.34;;;9.49;42.79
2841;BME280;53423;49.224;12.074;2023-03-02T08:07:31;97902.84;;;9.52;43.39
2841;BME280;53423;49.224;12.074;2023-03-02T08:09:59;97905.34;;;10.04;41.63
2841;BME280;53423;49.224;12.074;2023-03-02T08:12:27;97908.47;;;9.57;43.76
2841;BME280;53423;49.224;12.074;2023-03-02T08:14:55;97902.94;;;9.85;43.38
2841;BME280;53423;49.224;12.074;2023-03-02T08:17:25;97903.44;;;9.89;44.19
2841;BME280;53423;49.224;12.074;2023-03-02T08:19:53;97904.03;;;10.34;41.98
2841;BME280;53423;49.224;12.074;2023-03-02T08:22:20;97899.84;;;10.49;41.14
2841;BME280;53423;49.224;12.074;2023-03-02T08:24:48;97901.38;;;10.68;40.89
2841;BME280;53423;49.224;12.074;2023-03-02T08:27:16;97905.84;;;10.42;41.43
2841;BME280;53423;49.224;12.074;2023-03-02T08:29:44;97900.13;;;10.96;39.48
2841;BME280;53423;49.224;12.074;2023-03-02T08:32:12;97897.00;;;10.84;40.49
2841;BME280;53423;49.224;12.074;2023-03-02T08:34:41;97893.44;;;10.52;41.01
2841;BME280;53423;49.224;12.074;2023-03-02T08:37:09;97891.66;;;11.66;38.93
2841;BME280;53423;49.224;12.074;2023-03-02T08:39:37;97896.81;;;10.86;40.04
2841;BME280;53423;49.224;12.074;2023-03-02T08:42:05;97903.06;;;10.85;40.20
2841;BME280;53423;49.224;12.074;2023-03-02T08:44:33;97886.72;;;11.23;40.57
2841;BME280;53423;49.224;12.074;2023-03-02T08:47:01;97886.72;;;11.39;39.73
2841;BME280;53423;49.224;12.074;2023-03-02T08:49:29;97887.88;;;11.28;41.14
2841;BME280;53423;49.224;12.074;2023-03-02T08:51:58;97884.09;;;11.55;39.72
2841;BME280;53423;49.224;12.074;2023-03-02T08:54:26;97887.72;;;11.62;39.92
2841;BME280;53423;49.224;12.074;2023-03-02T08:56:54;97884.59;;;11.59;38.61
2841;BME280;53423;49.224;12.074;2023-03-02T08:59:22;97874.72;;;11.53;38.53
2841;BME280;53423;49.224;12.074;2023-03-02T09:01:50;97885.09;;;11.62;39.11
2841;BME280;53423;49.224;12.074;2023-03-02T09:04:18;97879.53;;;11.65;38.88
2841;BME280;53423;49.224;12.074;2023-03-02T09:06:46;97883.13;;;11.32;40.09
2841;BME280;53423;49.224;12.074;2023-03-02T09:09:16;97875.66;;;12.00;37.49
2841;BME280;53423;49.224;12.074;2023-03-02T09:11:44;97872.22;;;12.46;36.91
2841;BME280;53423;49.224;12.074;2023-03-02T09:14:12;97867.72;;;12.24;37.09
2841;BME280;53423;49.224;12.074;2023-03-02T09:16:40;97866.72;;;12.33;37.22
2841;BME280;53423;49.224;12.074;2023-03-02T09:19:08;97873.44;;;12.27;37.54
2841;BME280;53423;49.224;12.074;2023-03-02T09:21:36;97864.22;;;12.31;37.66
2841;BME280;53423;49.224;12.074;2023-03-02T09:24:04;97867.09;;;12.52;36.03
2841;BME280;53423;49.224;12.074;2023-03-02T09:26:34;97862.38;;;12.48;36.39
2841;BME280;53423;49.224;12.074;2023-03-02T09:29:03;97856.41;;;12.15;37.21
2841;BME280;53423;49.224;12.074;2023-03-02T09:31:32;97861.88;;;12.75;36.05
2841;BME280;53423;49.224;12.074;2023-03-02T09:34:01;97859.31;;;12.28;37.65
2841;BME280;53423;49.224;12.074;2023-03-02T09:36:29;97863.16;;;12.48;36.23
2841;BME280;53423;49.224;12.074;2023-03-02T09:38:58;97868.53;;;12.63;36.56
2841;BME280;53423;49.224;12.074;2023-03-02T09:45:11;97867.00;;;13.44;35.83
2841;BME280;53423;49.224;12.074;2023-03-02T09:47:46;97863.78;;;13.57;34.40
2841;BME280;53423;49.224;12.074;2023-03-02T09:50:29;97862.91;;;14.52;33.65
2841;BME280;53423;49.224;12.074;2023-03-02T09:53:30;97866.94;;;14.83;32.56
2841;BME280;53423;49.224;12.074;2023-03-02T09:56:01;97862.28;;;14.50;33.59
2841;BME280;53423;49.224;12.074;2023-03-02T09:58:34;97861.75;;;14.25;33.76
2841;BME280;53423;49.224;12.074;2023-03-02T10:01:10;97866.03;;;14.41;33.54
2841;BME280;53423;49.224;12.074;2023-03-02T10:03:47;97859.75;;;14.77;32.83
2841;BME280;53423;49.224;12.074;2023-03-02T10:06:17;97862.38;;;14.56;32.17
2841;BME280;53423;49.224;12.074;2023-03-02T10:08:45;97852.13;;;15.46;31.42
2841;BME280;53423;49.224;12.074;2023-03-02T10:11:20;97856.53;;;14.97;32.00
2841;BME280;53423;49.224;12.074;2023-03-02T10:13:54;97854.31;;;14.29;33.64
2841;BME280;53423;49.224;12.074;2023-03-02T10:16:29;97860.88;;;14.68;32.75
2841;BME280;53423;49.224;12.074;2023-03-02T10:19:07;97851.78;;;14.71;33.16
2841;BME280;53423;49.224;12.074;2023-03-02T10:21:39;97846.88;;;15.73;31.13
2841;BME280;53423;49.224;12.074;2023-03-02T10:24:14;97850.06;;;15.62;30.32
2841;BME280;53423;49.224;12.074;2023-03-02T10:26:46;97852.03;;;15.54;31.38
2841;BME280;53423;49.224;12.074;2023-03-02T10:29:30;97841.00;;;15.29;31.94
2841;BME280;53423;49.224;12.074;2023-03-02T10:32:04;97835.88;;;15.70;29.90
2841;BME280;53423;49.224;12.074;2023-03-02T10:34:37;97833.91;;;15.30;31.93
2841;BME280;53423;49.224;12.074;2023-03-02T10:37:10;97839.41;;;14.71;31.62
2841;BME280;53423;49.224;12.074;2023-03-02T10:39:40;97840.50;;;14.62;34.01
2841;BME280;53423;49.224;12.074;2023-03-02T10:42:13;97831.94;;;15.38;31.54
2841;BME280;53423;49.224;12.074;2023-03-02T10:44:45;97826.75;;;15.24;31.75
2841;BME280;53423;49.224;12.074;2023-03-02T10:47:21;97829.28;;;15.87;30.92
2841;BME280;53423;49.224;12.074;2023-03-02T10:49:50;97823.66;;;14.99;32.01
2841;BME280;53423;49.224;12.074;2023-03-02T10:52:21;97828.88;;;14.71;33.76
2841;BME280;53423;49.224;12.074;2023-03-02T10:54:59;97833.66;;;15.04;32.61
2841;BME280;53423;49.224;12.074;2023-03-02T10:57:33;97830.34;;;14.59;33.39
2841;BME280;53423;49.224;12.074;2023-03-02T11:00:04;97826.28;;;15.41;32.63
2841;BME280;53423;49.224;12.074;2023-03-02T11:02:35;97819.88;;;15.08;32.25
2841;BME280;53423;49.224;12.074;2023-03-02T11:05:27;97823.84;;;15.19;32.42
2841;BME280;53423;49.224;12.074;2023-03-02T11:07:56;97821.44;;;15.45;31.61
2841;BME280;53423;49.224;12.074;2023-03-02T11:10:27;97818.38;;;14.99;32.42
2841;BME280;53423;49.224;12.074;2023-03-02T11:12:58;97806.88;;;15.49;31.83
2841;BME280;53423;49.224;12.074;2023-03-02T11:15:32;97802.41;;;15.28;32.30
2841;BME280;53423;49.224;12.074;2023-03-02T11:18:06;97811.09;;;15.01;33.13
2841;BME280;53423;49.224;12.074;2023-03-02T11:20:37;97808.94;;;15.11;31.96
2841;BME280;53423;49.224;12.074;2023-03-02T11:23:15;97813.78;;;15.08;31.91
2841;BME280;53423;49.224;12.074;2023-03-02T11:25:48;97804.69;;;15.59;31.87
2841;BME280;53423;49.224;12.074;2023-03-02T11:28:32;97799.84;;;15.14;32.14
2841;BME280;53423;49.224;12.074;2023-03-02T11:31:05;97797.28;;;15.48;31.83
2841;BME280;53423;49.224;12.074;2023-03-02T11:33:38;97793.66;;;16.24;30.64
2841;BME280;53423;49.224;12.074;2023-03-02T11:36:14;97790.13;;;16.03;32.18
2841;BME280;53423;49.224;12.074;2023-03-02T11:38:47;97794.63;;;15.75;31.42
2841;BME280;53423;49.224;12.074;2023-03-02T11:41:25;97790.91;;;15.97;31.69
2841;BME280;53423;49.224;12.074;2023-03-02T11:43:58;97793.03;;;15.81;31.71
2841;BME280;53423;49.224;12.074;2023-03-02T11:46:28;97790.63;;;15.52;32.08
2841;BME280;53423;49.224;12.074;2023-03-02T11:49:01;97780.53;;;15.13;32.53
2841;BME280;53423;49.224;12.074;2023-03-02T11:51:33;97774.00;;;15.92;31.86
2841;BME280;53423;49.224;12.074;2023-03-02T11:54:09;97769.03;;;16.23;30.37
2841;BME280;53423;49.224;12.074;2023-03-02T11:56:38;97771.09;;;17.20;29.20
2841;BME280;53423;49.224;12.074;2023-03-02T11:59:14;97765.63;;;17.42;30.14
2841;BME280;53423;49.224;12.074;2023-03-02T12:01:45;97761.81;;;18.14;27.86
2841;BME280;53423;49.224;12.074;2023-03-02T12:04:27;97763.91;;;17.93;29.09
2841;BME280;53423;49.224;12.074;2023-03-02T12:06:55;97766.25;;;17.50;28.77
2841;BME280;53423;49.224;12.074;2023-03-02T12:09:34;97760.34;;;18.18;27.35
2841;BME280;53423;49.224;12.074;2023-03-02T12:12:30;97753.00;;;18.20;27.62
2841;BME280;53423;49.224;12.074;2023-03-02T12:15:00;97762.41;;;18.16;27.85
2841;BME280;53423;49.224;12.074;2023-03-02T12:17:33;97749.06;;;18.36;27.30
2841;BME280;53423;49.224;12.074;2023-03-02T12:20:25;97757.03;;;18.74;26.28
2841;BME280;53423;49.224;12.074;2023-03-02T12:23:06;97757.00;;;17.85;28.42
2841;BME280;53423;49.224;12.074;2023-03-02T12:25:39;97749.88;;;18.43;27.89
2841;BME280;53423;49.224;12.074;2023-03-02T12:28:24;97749.53;;;17.50;29.81
2841;BME280;53423;49.224;12.074;2023-03-02T12:31:01;97746.00;;;16.64;31.30
2841;BME280;53423;49.224;12.074;2023-03-02T12:33:30;97743.13;;;16.53;30.93
2841;BME280;53423;49.224;12.074;2023-03-02T12:36:10;97745.66;;;16.27;31.08
2841;BME280;53423;49.224;12.074;2023-03-02T12:38:40;97753.66;;;15.58;33.06
2841;BME280;53423;49.224;12.074;2023-03-02T12:41:46;97742.28;;;15.98;31.67
2841;BME280;53423;49.224;12.074;2023-03-02T12:44:34;97738.13;;;15.76;32.66
2841;BME280;53423;49.224;12.074;2023-03-02T12:47:13;97732.22;;;15.81;32.54
2841;BME280;53423;49.224;12.074;2023-03-02T12:49:45;97734.63;;;15.69;33.29
2841;BME280;53423;49.224;12.074;2023-03-02T12:52:29;97720.44;;;16.24;31.70
2841;BME280;53423;49.224;12.074;2023-03-02T12:55:00;97732.09;;;15.55;34.02
2841;BME280;53423;49.224;12.074;2023-03-02T12:57:29;97727.66;;;15.34;33.31
2841;BME280;53423;49.224;12.074;2023-03-02T12:59:59;97727.06;;;16.00;32.24
2841;BME280;53423;49.224;12.074;2023-03-02T13:02:29;97710.09;;;15.48;33.88
2841;BME280;53423;49.224;12.074;2023-03-02T13:04:59;97715.53;;;15.74;31.97
2841;BME280;53423;49.224;12.074;2023-03-02T13:07:34;97715.00;;;15.91;33.02
2841;BME280;53423;49.224;12.074;2023-03-02T13:10:07;97716.13;;;16.23;32.99
2841;BME280;53423;49.224;12.074;2023-03-02T13:12:36;97703.69;;;16.04;33.80
2841;BME280;53423;49.224;12.074;2023-03-02T13:15:14;97711.81;;;16.02;32.95
2841;BME280;53423;49.224;12.074;2023-03-02T13:17:43;97704.50;;;15.57;33.08
2841;BME280;53423;49.224;12.074;2023-03-02T13:20:13;97704.22;;;15.93;32.43
2841;BME280;53423;49.224;12.074;2023-03-02T13:22:42;97707.22;;;15.43;34.01
2841;BME280;53423;49.224;12.074;2023-03-02T13:25:21;97705.97;;;15.11;34.37
2841;BME280;53423;49.224;12.074;2023-03-02T13:27:53;97704.28;;;15.31;34.16
2841;BME280;53423;49.224;12.074;2023-03-02T13:30:24;97702.53;;;15.17;34.67